This is the latest recevied weather packets stored in our database for station/object WC4PEM-14. If no packets are shown the sender has not sent any weather packets the latest 10 day(s).
| Time | Temp. | Humidity | Pressure | Rain* | Wind** | Luminosity | Snow |
|---|---|---|---|---|---|---|---|
| 1778175917 | 33.89° C | 45% | 1014.7 hPa | 0 mm | - | - | - |
| 1778175779 | 33.89° C | 45% | 1014.7 hPa | 0 mm | - | - | - |
| 1778175479 | 34.44° C | 45% | 1014.7 hPa | 0 mm | - | - | - |
| 1778175351 | 33.89° C | 46% | 1014.8 hPa | 0 mm | - | - | - |
| 1778175180 | 33.89° C | 46% | 1014.8 hPa | 0 mm | - | - | - |
| 1778175004 | 33.33° C | 46% | 1014.8 hPa | 0 mm | - | - | - |
| 1778174879 | 33.33° C | 46% | 1014.8 hPa | 0 mm | - | - | - |
| 1778174775 | 32.78° C | 44% | 1014.8 hPa | 0 mm | - | - | - |
| 1778174580 | 32.78° C | 44% | 1014.8 hPa | 0 mm | - | - | - |
| 1778174361 | 33.33° C | 45% | 1014.7 hPa | 0 mm | - | - | - |
| 1778174280 | 33.33° C | 45% | 1014.7 hPa | 0 mm | - | - | - |
| 1778174131 | 33.33° C | 45% | 1014.6 hPa | 0 mm | - | - | - |
| 1778174099 | 33.33° C | 45% | 1014.6 hPa | 0 mm | - | - | - |
| 1778173979 | 33.33° C | 45% | 1014.6 hPa | 0 mm | - | - | - |
| 1778173805 | 32.78° C | 45% | 1014.8 hPa | 0 mm | - | - | - |
| 1778173680 | 32.78° C | 45% | 1014.8 hPa | 0 mm | - | - | - |
| 1778173539 | 33.33° C | 44% | 1014.8 hPa | 0 mm | - | - | - |
| 1778173380 | 33.33° C | 44% | 1014.8 hPa | 0 mm | - | - | - |
| 1778173080 | 32.78° C | 44% | 1014.7 hPa | 0 mm | - | - | - |
| 1778172942 | 32.22° C | 45% | 1014.7 hPa | 0 mm | - | - | - |
| 1778172780 | 32.22° C | 45% | 1014.7 hPa | 0 mm | - | - | - |
| 1778172555 | 32.22° C | 44% | 1014.8 hPa | 0 mm | - | - | - |
| 1778172480 | 32.22° C | 44% | 1014.8 hPa | 0 mm | - | - | - |
| 1778172303 | 31.67° C | 40% | 1015.3 hPa | 0 mm | - | - | - |
| 1778172237 | 32.22° C | 43% | 1015 hPa | 0 mm | - | - | - |
* Rain latest hour (hover to see other rain measurements)
** Current wind speed in m/s (hover to see current wind gust speed)